Flight Track Log - Related Links

Times and Time Zones

All times are in EST time to prevent confusion due to time zone crossing. See the JZA7778 flight status page for this flight to view local times or setup timezone preferences in your user account.

Time Position Orientation Groundspeed Altitude Reporting Facility
EST Latitude Longitude Course Direction KTS MPH feet Rate Location/Type
Tue 08:07:10 PM 46.3500 -79.4167 165° South 20 23 1,200  Level Toronto Center
Tue 08:08:10 PM 46.3667 -79.3833 54° Northeast 120 138 2,100 1,400 Climbing Toronto Center
Tue 08:09:10 PM 46.3333 -79.3500 145° Southeast 140 161 4,000 1,800 Climbing Toronto Center
Tue 08:10:10 PM 46.2833 -79.3500 180° South 150 173 5,700 1,500 Climbing Toronto Center
Tue 08:11:10 PM 46.2500 -79.3500 180° South 180 207 7,000 1,400 Climbing Toronto Center
Tue 08:12:00 PM 45.9591 -79.4553 170° South  Level Estimated
Tue 08:12:10 PM 46.2000 -79.3167 155° Southeast 180 207 8,500  Level Toronto Center
Tue 08:13:00 PM 45.8809 -79.4249 165° South  Level FlightAware Approximate
Tue 08:13:10 PM 46.1500 -79.3167 180° South 180 207 9,900  Level Toronto Center
Tue 08:14:10 PM 46.0833 -79.3167 180° South 180 207 11,200 1,300 Climbing Toronto Center
Tue 08:15:10 PM 46.0333 -79.3000 167° South 190 219 12,500 1,350 Climbing Toronto Center
Tue 08:16:10 PM 45.9833 -79.3000 180° South 200 230 13,900 1,250 Climbing Toronto Center
Tue 08:17:10 PM 45.9333 -79.3000 180° South 200 230 15,000 1,050 Climbing Toronto Center
Tue 08:18:10 PM 45.8667 -79.2667 161° South 210 242 16,000 500 Climbing Toronto Center
Tue 08:19:10 PM 45.8000 -79.2667 180° South 230 265 16,000  Level Toronto Center
Tue 08:20:10 PM 45.7333 -79.2500 170° South 250 288 16,000  Level Toronto Center
Tue 08:21:10 PM 45.6667 -79.2500 180° South 260 299 16,000  Level Toronto Center
Tue 08:22:10 PM 45.5833 -79.2333 172° South 270 311 16,000  Level Toronto Center
Tue 08:23:10 PM 45.5167 -79.2333 180° South 270 311 16,000  Level Toronto Center
Tue 08:24:10 PM 45.4333 -79.2000 164° South 270 311 16,000  Level Toronto Center
Tue 08:25:10 PM 45.3667 -79.2000 180° South 270 311 16,000  Level Toronto Center
Tue 08:26:10 PM 45.2833 -79.1833 172° South 270 311 16,000  Level Toronto Center
Tue 08:27:10 PM 45.2167 -79.2000 190° South 270 311 16,000  Level Toronto Center
Tue 08:28:10 PM 45.1333 -79.1833 172° South 270 311 16,000  Level Toronto Center
Tue 08:29:10 PM 45.0667 -79.2000 190° South 270 311 16,000  Level Toronto Center
Tue 08:30:10 PM 44.9833 -79.2000 180° South 270 311 16,000  Level Toronto Center
Tue 08:31:10 PM 44.9167 -79.2167 190° South 270 311 16,000  Level Toronto Center
Tue 08:32:10 PM 44.8500 -79.2167 180° South 270 311 16,000  Level Toronto Center
Tue 08:33:10 PM 44.7667 -79.2167 180° South 270 311 16,000 -250 Level Toronto Center
Tue 08:34:10 PM 44.7000 -79.2167 180° South 270 311 15,500 -600 Descending Toronto Center
Tue 08:35:10 PM 44.6167 -79.2167 180° South 280 322 14,800 -700 Descending Toronto Center
Tue 08:36:10 PM 44.5500 -79.2167 180° South 280 322 14,100 -700 Descending Toronto Center
Tue 08:37:10 PM 44.4667 -79.2167 180° South 280 322 13,400 -700 Descending Toronto Center
Tue 08:38:10 PM 44.3833 -79.2167 180° South 280 322 12,700 -750 Descending Toronto Center
Tue 08:39:10 PM 44.3167 -79.2167 180° South 270 311 11,900 -750 Descending Toronto Center
Tue 08:40:10 PM 44.2333 -79.2167 180° South 270 311 11,200 -700 Descending Toronto Center
Tue 08:41:10 PM 44.1500 -79.2167 180° South 270 311 10,500 -700 Descending Toronto Center
Tue 08:42:10 PM 44.0833 -79.2167 180° South 270 311 9,800 -700 Descending Toronto Center
Tue 08:43:10 PM 44.0167 -79.2667 208° Southwest 260 299 9,100 -700 Descending Toronto Center
Tue 08:44:10 PM 43.9667 -79.3167 216° Southwest 260 299 8,400 -550 Descending Toronto Center
Tue 08:45:10 PM 43.9000 -79.3833 216° Southwest 260 299 8,000 -200 Descending Toronto Center
Tue 08:46:10 PM 43.8500 -79.4167 206° Southwest 250 288 8,000  Level Toronto Center
Tue 08:47:10 PM 43.8167 -79.5167 245° Southwest 240 276 8,000  Level Toronto Center
Tue 08:48:10 PM 43.7833 -79.5833 235° Southwest 240 276 8,000 -250 Level Toronto Center
Tue 08:49:10 PM 43.7500 -79.6833 245° Southwest 240 276 7,500 -1,050 Descending Toronto Center
Tue 08:50:10 PM 43.7167 -79.7500 235° Southwest 240 276 5,900 -1,400 Descending Toronto Center
Tue 08:51:10 PM 43.6667 -79.8000 216° Southwest 230 265 4,700 -1,400 Descending Toronto Center
Tue 08:52:10 PM 43.6333 -79.8667 235° Southwest 220 253 3,100 -850 Descending Toronto Center
Tue 08:53:10 PM 43.5667 -79.8333 160° South 210 242 3,000 -50 Descending Toronto Center
Tue 08:54:10 PM 43.5667 -79.7667 90° East 180 207 3,000 -250 Level Toronto Center
Tue 08:55:10 PM 43.6000 -79.7333 36° Northeast 160 184 2,500 -600 Descending Toronto Center
Tue 08:56:10 PM 43.6333 -79.7000 36° Northeast 150 173 1,800 -667 Descending Toronto Center
Tue 08:58:10 PM 43.6667 -79.6333 55° Northeast 100 115 500 -433 Descending Toronto Center
Tue 08:59:10 PM 43.6833 -79.6167 36° Northeast 40 46 500  Level Toronto Center

Login

Don't have an account? Register now (free) for customized features, flight alerts, and more!